sensor_id;sensor_type;location;lat;lon;timestamp;P1;durP1;ratioP1;P2;durP2;ratioP2
74241;SDS011;62599;49.146;10.426;2023-12-20T00:00:53;1.83;;;0.93;;
74241;SDS011;62599;49.146;10.426;2023-12-20T00:03:18;1.77;;;1.20;;
74241;SDS011;62599;49.146;10.426;2023-12-20T00:05:44;3.17;;;1.40;;
74241;SDS011;62599;49.146;10.426;2023-12-20T00:08:09;4.27;;;1.93;;
74241;SDS011;62599;49.146;10.426;2023-12-20T00:10:34;3.50;;;1.63;;
74241;SDS011;62599;49.146;10.426;2023-12-20T00:12:59;3.63;;;2.30;;
74241;SDS011;62599;49.146;10.426;2023-12-20T00:15:25;3.80;;;1.07;;
74241;SDS011;62599;49.146;10.426;2023-12-20T00:17:50;5.87;;;1.40;;
74241;SDS011;62599;49.146;10.426;2023-12-20T00:20:15;2.27;;;1.17;;
74241;SDS011;62599;49.146;10.426;2023-12-20T00:22:40;4.37;;;1.47;;
74241;SDS011;62599;49.146;10.426;2023-12-20T00:25:06;1.83;;;1.20;;
74241;SDS011;62599;49.146;10.426;2023-12-20T00:27:32;3.10;;;1.85;;
74241;SDS011;62599;49.146;10.426;2023-12-20T00:29:57;3.23;;;1.70;;
74241;SDS011;62599;49.146;10.426;2023-12-20T00:32:22;1.93;;;1.10;;
74241;SDS011;62599;49.146;10.426;2023-12-20T00:34:47;1.53;;;1.20;;
74241;SDS011;62599;49.146;10.426;2023-12-20T00:37:13;1.23;;;1.10;;
74241;SDS011;62599;49.146;10.426;2023-12-20T00:39:38;3.70;;;1.67;;
74241;SDS011;62599;49.146;10.426;2023-12-20T00:42:03;4.93;;;1.77;;
74241;SDS011;62599;49.146;10.426;2023-12-20T00:44:28;3.30;;;1.90;;
74241;SDS011;62599;49.146;10.426;2023-12-20T00:46:54;3.30;;;1.10;;
74241;SDS011;62599;49.146;10.426;2023-12-20T00:49:19;5.00;;;1.90;;
74241;SDS011;62599;49.146;10.426;2023-12-20T00:51:44;3.50;;;1.80;;
74241;SDS011;62599;49.146;10.426;2023-12-20T00:54:09;1.43;;;1.10;;
74241;SDS011;62599;49.146;10.426;2023-12-20T00:56:35;2.73;;;1.80;;
74241;SDS011;62599;49.146;10.426;2023-12-20T00:59:00;3.03;;;1.65;;
74241;SDS011;62599;49.146;10.426;2023-12-20T01:01:25;2.30;;;1.30;;
74241;SDS011;62599;49.146;10.426;2023-12-20T01:03:50;4.10;;;1.67;;
74241;SDS011;62599;49.146;10.426;2023-12-20T01:06:16;3.10;;;1.48;;
74241;SDS011;62599;49.146;10.426;2023-12-20T01:08:41;1.47;;;0.97;;
74241;SDS011;62599;49.146;10.426;2023-12-20T01:11:06;2.73;;;1.37;;
74241;SDS011;62599;49.146;10.426;2023-12-20T01:13:32;4.40;;;1.57;;
74241;SDS011;62599;49.146;10.426;2023-12-20T01:15:57;2.50;;;1.37;;
74241;SDS011;62599;49.146;10.426;2023-12-20T01:18:22;1.80;;;1.17;;
74241;SDS011;62599;49.146;10.426;2023-12-20T01:20:47;2.07;;;1.13;;
74241;SDS011;62599;49.146;10.426;2023-12-20T01:23:13;2.33;;;1.10;;
74241;SDS011;62599;49.146;10.426;2023-12-20T01:25:38;2.20;;;1.17;;
74241;SDS011;62599;49.146;10.426;2023-12-20T01:28:04;2.28;;;1.92;;
74241;SDS011;62599;49.146;10.426;2023-12-20T01:30:29;1.20;;;1.10;;
74241;SDS011;62599;49.146;10.426;2023-12-20T01:32:54;1.00;;;0.70;;
74241;SDS011;62599;49.146;10.426;2023-12-20T01:35:19;2.13;;;1.27;;
74241;SDS011;62599;49.146;10.426;2023-12-20T01:37:45;1.33;;;0.93;;
74241;SDS011;62599;49.146;10.426;2023-12-20T01:40:10;6.38;;;1.38;;
74241;SDS011;62599;49.146;10.426;2023-12-20T01:42:35;2.35;;;1.00;;
74241;SDS011;62599;49.146;10.426;2023-12-20T01:45:00;1.33;;;0.83;;
74241;SDS011;62599;49.146;10.426;2023-12-20T01:47:26;2.17;;;1.37;;
74241;SDS011;62599;49.146;10.426;2023-12-20T01:49:52;2.50;;;2.05;;
74241;SDS011;62599;49.146;10.426;2023-12-20T01:52:17;1.33;;;0.90;;
74241;SDS011;62599;49.146;10.426;2023-12-20T01:54:42;1.10;;;0.63;;
74241;SDS011;62599;49.146;10.426;2023-12-20T01:57:08;1.73;;;1.03;;
74241;SDS011;62599;49.146;10.426;2023-12-20T01:59:34;3.13;;;1.90;;
74241;SDS011;62599;49.146;10.426;2023-12-20T02:01:59;1.73;;;1.25;;
74241;SDS011;62599;49.146;10.426;2023-12-20T02:04:25;6.22;;;1.40;;
74241;SDS011;62599;49.146;10.426;2023-12-20T02:06:52;2.25;;;1.10;;
74241;SDS011;62599;49.146;10.426;2023-12-20T02:09:17;1.08;;;0.85;;
74241;SDS011;62599;49.146;10.426;2023-12-20T02:11:43;2.65;;;1.02;;
74241;SDS011;62599;49.146;10.426;2023-12-20T02:14:08;1.73;;;1.20;;
74241;SDS011;62599;49.146;10.426;2023-12-20T02:16:33;3.45;;;1.33;;
74241;SDS011;62599;49.146;10.426;2023-12-20T02:18:59;1.60;;;0.73;;
74241;SDS011;62599;49.146;10.426;2023-12-20T02:21:25;1.07;;;0.50;;
74241;SDS011;62599;49.146;10.426;2023-12-20T02:23:50;1.25;;;0.60;;
74241;SDS011;62599;49.146;10.426;2023-12-20T02:26:15;2.00;;;0.30;;
74241;SDS011;62599;49.146;10.426;2023-12-20T02:28:41;0.73;;;0.73;;
74241;SDS011;62599;49.146;10.426;2023-12-20T02:31:06;0.47;;;0.23;;
74241;SDS011;62599;49.146;10.426;2023-12-20T02:33:31;1.50;;;0.90;;
74241;SDS011;62599;49.146;10.426;2023-12-20T02:35:57;1.53;;;1.03;;
74241;SDS011;62599;49.146;10.426;2023-12-20T02:38:22;1.53;;;1.00;;
74241;SDS011;62599;49.146;10.426;2023-12-20T02:40:47;1.23;;;0.90;;
74241;SDS011;62599;49.146;10.426;2023-12-20T02:43:12;0.97;;;0.70;;
74241;SDS011;62599;49.146;10.426;2023-12-20T02:45:37;0.53;;;0.30;;
74241;SDS011;62599;49.146;10.426;2023-12-20T02:48:03;2.27;;;0.30;;
74241;SDS011;62599;49.146;10.426;2023-12-20T02:50:28;0.63;;;0.60;;
74241;SDS011;62599;49.146;10.426;2023-12-20T02:52:53;0.80;;;0.37;;
74241;SDS011;62599;49.146;10.426;2023-12-20T02:55:18;2.37;;;0.40;;
74241;SDS011;62599;49.146;10.426;2023-12-20T02:57:44;0.93;;;0.80;;
74241;SDS011;62599;49.146;10.426;2023-12-20T03:00:09;0.40;;;0.40;;
74241;SDS011;62599;49.146;10.426;2023-12-20T03:02:35;2.50;;;0.85;;
74241;SDS011;62599;49.146;10.426;2023-12-20T03:05:01;1.17;;;0.33;;
74241;SDS011;62599;49.146;10.426;2023-12-20T03:07:26;0.90;;;0.63;;
74241;SDS011;62599;49.146;10.426;2023-12-20T03:09:51;0.57;;;0.40;;
74241;SDS011;62599;49.146;10.426;2023-12-20T03:12:17;0.53;;;0.50;;
74241;SDS011;62599;49.146;10.426;2023-12-20T03:14:43;3.50;;;0.97;;
74241;SDS011;62599;49.146;10.426;2023-12-20T03:17:08;0.38;;;0.22;;
74241;SDS011;62599;49.146;10.426;2023-12-20T03:19:33;0.63;;;0.40;;
74241;SDS011;62599;49.146;10.426;2023-12-20T03:21:58;1.30;;;0.53;;
74241;SDS011;62599;49.146;10.426;2023-12-20T03:24:25;0.35;;;0.17;;
74241;SDS011;62599;49.146;10.426;2023-12-20T03:26:51;1.17;;;0.47;;
74241;SDS011;62599;49.146;10.426;2023-12-20T03:29:16;0.50;;;0.43;;
74241;SDS011;62599;49.146;10.426;2023-12-20T03:31:41;0.37;;;0.30;;
74241;SDS011;62599;49.146;10.426;2023-12-20T03:34:06;0.50;;;0.17;;
74241;SDS011;62599;49.146;10.426;2023-12-20T03:36:31;0.63;;;0.43;;
74241;SDS011;62599;49.146;10.426;2023-12-20T03:38:57;0.37;;;0.27;;
74241;SDS011;62599;49.146;10.426;2023-12-20T03:41:22;0.30;;;0.20;;
74241;SDS011;62599;49.146;10.426;2023-12-20T03:43:47;0.40;;;0.30;;
74241;SDS011;62599;49.146;10.426;2023-12-20T03:46:12;0.60;;;0.40;;
74241;SDS011;62599;49.146;10.426;2023-12-20T03:48:38;0.57;;;0.30;;
74241;SDS011;62599;49.146;10.426;2023-12-20T03:51:03;0.30;;;0.30;;
74241;SDS011;62599;49.146;10.426;2023-12-20T03:53:28;0.20;;;0.20;;
74241;SDS011;62599;49.146;10.426;2023-12-20T03:55:53;0.33;;;0.33;;
74241;SDS011;62599;49.146;10.426;2023-12-20T03:58:19;0.50;;;0.30;;
74241;SDS011;62599;49.146;10.426;2023-12-20T04:00:44;0.47;;;0.33;;
74241;SDS011;62599;49.146;10.426;2023-12-20T04:03:09;1.27;;;1.17;;
74241;SDS011;62599;49.146;10.426;2023-12-20T04:05:37;0.28;;;0.17;;
74241;SDS011;62599;49.146;10.426;2023-12-20T04:08:02;0.67;;;0.50;;
74241;SDS011;62599;49.146;10.426;2023-12-20T04:10:29;0.30;;;0.28;;
74241;SDS011;62599;49.146;10.426;2023-12-20T04:12:54;1.23;;;0.43;;
74241;SDS011;62599;49.146;10.426;2023-12-20T04:15:20;0.13;;;0.13;;
74241;SDS011;62599;49.146;10.426;2023-12-20T04:17:45;0.33;;;0.30;;
74241;SDS011;62599;49.146;10.426;2023-12-20T04:20:10;0.03;;;0.03;;
74241;SDS011;62599;49.146;10.426;2023-12-20T04:22:35;0.17;;;0.17;;
74241;SDS011;62599;49.146;10.426;2023-12-20T04:25:01;0.07;;;0.07;;
74241;SDS011;62599;49.146;10.426;2023-12-20T04:27:27;0.13;;;0.13;;
74241;SDS011;62599;49.146;10.426;2023-12-20T04:29:52;0.20;;;0.10;;
74241;SDS011;62599;49.146;10.426;2023-12-20T04:32:17;0.53;;;0.53;;
74241;SDS011;62599;49.146;10.426;2023-12-20T04:34:42;0.00;;;0.00;;
74241;SDS011;62599;49.146;10.426;2023-12-20T04:37:08;0.10;;;0.10;;
74241;SDS011;62599;49.146;10.426;2023-12-20T04:39:33;0.17;;;0.17;;
74241;SDS011;62599;49.146;10.426;2023-12-20T04:41:58;0.20;;;0.20;;
74241;SDS011;62599;49.146;10.426;2023-12-20T04:44:23;0.07;;;0.07;;
74241;SDS011;62599;49.146;10.426;2023-12-20T04:46:48;0.30;;;0.10;;
74241;SDS011;62599;49.146;10.426;2023-12-20T04:49:14;0.40;;;0.00;;
74241;SDS011;62599;49.146;10.426;2023-12-20T04:51:39;0.10;;;0.10;;
74241;SDS011;62599;49.146;10.426;2023-12-20T04:54:04;0.40;;;0.40;;
74241;SDS011;62599;49.146;10.426;2023-12-20T04:56:29;0.20;;;0.20;;
74241;SDS011;62599;49.146;10.426;2023-12-20T04:58:55;0.10;;;0.10;;
74241;SDS011;62599;49.146;10.426;2023-12-20T05:01:20;0.30;;;0.30;;
74241;SDS011;62599;49.146;10.426;2023-12-20T05:03:46;0.28;;;0.22;;
74241;SDS011;62599;49.146;10.426;2023-12-20T05:06:11;0.10;;;0.10;;
74241;SDS011;62599;49.146;10.426;2023-12-20T05:08:37;0.13;;;0.10;;
74241;SDS011;62599;49.146;10.426;2023-12-20T05:11:02;0.10;;;0.10;;
74241;SDS011;62599;49.146;10.426;2023-12-20T05:13:27;0.40;;;0.40;;
74241;SDS011;62599;49.146;10.426;2023-12-20T05:15:52;0.10;;;0.10;;
74241;SDS011;62599;49.146;10.426;2023-12-20T05:18:18;0.00;;;0.00;;
74241;SDS011;62599;49.146;10.426;2023-12-20T05:20:43;0.10;;;0.10;;
74241;SDS011;62599;49.146;10.426;2023-12-20T05:23:08;0.27;;;0.17;;
74241;SDS011;62599;49.146;10.426;2023-12-20T05:25:33;0.47;;;0.38;;
74241;SDS011;62599;49.146;10.426;2023-12-20T05:27:59;0.33;;;0.33;;
74241;SDS011;62599;49.146;10.426;2023-12-20T05:30:24;0.10;;;0.10;;
74241;SDS011;62599;49.146;10.426;2023-12-20T05:32:49;0.67;;;0.63;;
74241;SDS011;62599;49.146;10.426;2023-12-20T05:35:14;0.20;;;0.20;;
74241;SDS011;62599;49.146;10.426;2023-12-20T05:37:40;0.43;;;0.43;;
74241;SDS011;62599;49.146;10.426;2023-12-20T05:40:06;0.38;;;0.20;;
74241;SDS011;62599;49.146;10.426;2023-12-20T05:42:31;0.22;;;0.22;;
74241;SDS011;62599;49.146;10.426;2023-12-20T05:44:56;1.10;;;0.57;;
74241;SDS011;62599;49.146;10.426;2023-12-20T05:47:21;0.60;;;0.60;;
74241;SDS011;62599;49.146;10.426;2023-12-20T05:49:47;0.00;;;0.00;;
74241;SDS011;62599;49.146;10.426;2023-12-20T05:52:12;0.50;;;0.30;;
74241;SDS011;62599;49.146;10.426;2023-12-20T05:54:37;0.37;;;0.37;;
74241;SDS011;62599;49.146;10.426;2023-12-20T05:57:03;2.80;;;1.07;;
74241;SDS011;62599;49.146;10.426;2023-12-20T05:59:28;0.50;;;0.50;;
74241;SDS011;62599;49.146;10.426;2023-12-20T06:01:53;0.83;;;0.67;;
74241;SDS011;62599;49.146;10.426;2023-12-20T06:04:18;0.10;;;0.10;;
74241;SDS011;62599;49.146;10.426;2023-12-20T06:06:44;1.77;;;0.37;;
74241;SDS011;62599;49.146;10.426;2023-12-20T06:09:09;0.47;;;0.43;;
74241;SDS011;62599;49.146;10.426;2023-12-20T06:11:35;1.35;;;1.27;;
74241;SDS011;62599;49.146;10.426;2023-12-20T06:14:00;0.33;;;0.33;;
74241;SDS011;62599;49.146;10.426;2023-12-20T06:16:25;0.20;;;0.20;;
74241;SDS011;62599;49.146;10.426;2023-12-20T06:18:50;1.03;;;0.70;;
74241;SDS011;62599;49.146;10.426;2023-12-20T06:21:16;0.67;;;0.33;;
74241;SDS011;62599;49.146;10.426;2023-12-20T06:23:41;0.30;;;0.27;;
74241;SDS011;62599;49.146;10.426;2023-12-20T06:26:06;0.60;;;0.43;;
74241;SDS011;62599;49.146;10.426;2023-12-20T06:28:31;0.77;;;0.53;;
74241;SDS011;62599;49.146;10.426;2023-12-20T06:30:57;0.53;;;0.53;;
74241;SDS011;62599;49.146;10.426;2023-12-20T06:33:22;0.40;;;0.40;;
74241;SDS011;62599;49.146;10.426;2023-12-20T06:35:48;0.25;;;0.25;;
74241;SDS011;62599;49.146;10.426;2023-12-20T06:38:13;0.50;;;0.50;;
74241;SDS011;62599;49.146;10.426;2023-12-20T06:40:38;1.43;;;0.60;;
74241;SDS011;62599;49.146;10.426;2023-12-20T06:43:03;0.27;;;0.20;;
74241;SDS011;62599;49.146;10.426;2023-12-20T06:45:29;2.53;;;0.47;;
74241;SDS011;62599;49.146;10.426;2023-12-20T06:47:54;0.60;;;0.33;;
74241;SDS011;62599;49.146;10.426;2023-12-20T06:50:20;0.43;;;0.40;;
74241;SDS011;62599;49.146;10.426;2023-12-20T06:52:45;0.30;;;0.22;;
74241;SDS011;62599;49.146;10.426;2023-12-20T06:55:10;0.50;;;0.40;;
74241;SDS011;62599;49.146;10.426;2023-12-20T06:57:36;0.43;;;0.23;;
74241;SDS011;62599;49.146;10.426;2023-12-20T07:00:02;0.70;;;0.38;;
74241;SDS011;62599;49.146;10.426;2023-12-20T07:02:27;1.38;;;0.82;;
74241;SDS011;62599;49.146;10.426;2023-12-20T07:04:55;0.55;;;0.50;;
74241;SDS011;62599;49.146;10.426;2023-12-20T07:07:20;0.67;;;0.60;;
74241;SDS011;62599;49.146;10.426;2023-12-20T07:09:46;0.68;;;0.55;;
74241;SDS011;62599;49.146;10.426;2023-12-20T07:12:11;1.40;;;0.83;;
74241;SDS011;62599;49.146;10.426;2023-12-20T07:14:36;0.83;;;0.63;;
74241;SDS011;62599;49.146;10.426;2023-12-20T07:17:02;1.17;;;1.00;;
74241;SDS011;62599;49.146;10.426;2023-12-20T07:19:27;1.10;;;0.70;;
74241;SDS011;62599;49.146;10.426;2023-12-20T07:21:53;1.30;;;0.93;;
74241;SDS011;62599;49.146;10.426;2023-12-20T07:24:18;1.90;;;1.40;;
74241;SDS011;62599;49.146;10.426;2023-12-20T07:26:43;1.43;;;1.03;;
74241;SDS011;62599;49.146;10.426;2023-12-20T07:29:08;0.47;;;0.47;;
74241;SDS011;62599;49.146;10.426;2023-12-20T07:31:34;1.17;;;0.63;;
74241;SDS011;62599;49.146;10.426;2023-12-20T07:33:59;0.88;;;0.80;;
74241;SDS011;62599;49.146;10.426;2023-12-20T07:36:25;0.45;;;0.45;;
74241;SDS011;62599;49.146;10.426;2023-12-20T07:38:51;0.40;;;0.40;;
74241;SDS011;62599;49.146;10.426;2023-12-20T07:41:16;1.80;;;1.07;;
74241;SDS011;62599;49.146;10.426;2023-12-20T07:43:42;1.20;;;0.60;;
74241;SDS011;62599;49.146;10.426;2023-12-20T07:46:07;2.67;;;1.10;;
74241;SDS011;62599;49.146;10.426;2023-12-20T07:48:34;0.80;;;0.63;;
74241;SDS011;62599;49.146;10.426;2023-12-20T07:50:59;5.05;;;3.08;;
74241;SDS011;62599;49.146;10.426;2023-12-20T07:53:25;2.23;;;1.03;;
74241;SDS011;62599;49.146;10.426;2023-12-20T07:55:50;0.97;;;0.83;;
74241;SDS011;62599;49.146;10.426;2023-12-20T07:58:17;3.65;;;1.85;;
74241;SDS011;62599;49.146;10.426;2023-12-20T08:00:42;2.13;;;1.70;;
74241;SDS011;62599;49.146;10.426;2023-12-20T08:03:07;2.70;;;1.90;;
74241;SDS011;62599;49.146;10.426;2023-12-20T08:05:33;4.47;;;2.23;;
74241;SDS011;62599;49.146;10.426;2023-12-20T08:07:58;1.90;;;1.10;;
74241;SDS011;62599;49.146;10.426;2023-12-20T08:10:23;2.53;;;1.60;;
74241;SDS011;62599;49.146;10.426;2023-12-20T08:12:49;1.35;;;0.85;;
74241;SDS011;62599;49.146;10.426;2023-12-20T08:15:14;2.30;;;1.87;;
74241;SDS011;62599;49.146;10.426;2023-12-20T08:17:39;1.63;;;1.47;;
74241;SDS011;62599;49.146;10.426;2023-12-20T08:20:05;2.73;;;1.80;;
74241;SDS011;62599;49.146;10.426;2023-12-20T08:22:30;2.55;;;1.25;;
74241;SDS011;62599;49.146;10.426;2023-12-20T08:24:55;2.53;;;1.40;;
74241;SDS011;62599;49.146;10.426;2023-12-20T08:27:21;2.03;;;0.80;;
74241;SDS011;62599;49.146;10.426;2023-12-20T08:29:46;5.10;;;2.53;;
74241;SDS011;62599;49.146;10.426;2023-12-20T08:32:12;2.10;;;1.23;;
74241;SDS011;62599;49.146;10.426;2023-12-20T08:34:37;2.17;;;1.67;;
74241;SDS011;62599;49.146;10.426;2023-12-20T08:37:02;3.10;;;1.48;;
74241;SDS011;62599;49.146;10.426;2023-12-20T08:39:28;3.37;;;1.53;;
74241;SDS011;62599;49.146;10.426;2023-12-20T08:41:55;3.13;;;1.90;;
74241;SDS011;62599;49.146;10.426;2023-12-20T08:44:20;1.90;;;1.57;;
74241;SDS011;62599;49.146;10.426;2023-12-20T08:46:47;2.63;;;1.52;;
74241;SDS011;62599;49.146;10.426;2023-12-20T08:49:13;1.13;;;0.40;;
74241;SDS011;62599;49.146;10.426;2023-12-20T08:51:38;1.23;;;0.90;;
74241;SDS011;62599;49.146;10.426;2023-12-20T08:54:06;3.38;;;1.77;;
74241;SDS011;62599;49.146;10.426;2023-12-20T08:56:33;2.03;;;1.27;;
74241;SDS011;62599;49.146;10.426;2023-12-20T08:58:58;1.85;;;1.38;;
74241;SDS011;62599;49.146;10.426;2023-12-20T09:01:24;2.87;;;2.20;;
74241;SDS011;62599;49.146;10.426;2023-12-20T09:03:49;2.20;;;1.67;;
74241;SDS011;62599;49.146;10.426;2023-12-20T09:06:14;2.97;;;1.77;;
74241;SDS011;62599;49.146;10.426;2023-12-20T09:08:40;2.80;;;1.23;;
74241;SDS011;62599;49.146;10.426;2023-12-20T09:11:05;2.03;;;1.27;;
74241;SDS011;62599;49.146;10.426;2023-12-20T09:13:31;1.60;;;1.05;;
74241;SDS011;62599;49.146;10.426;2023-12-20T09:15:57;3.80;;;1.58;;
74241;SDS011;62599;49.146;10.426;2023-12-20T09:18:22;2.88;;;1.10;;
74241;SDS011;62599;49.146;10.426;2023-12-20T09:20:47;2.70;;;1.37;;
74241;SDS011;62599;49.146;10.426;2023-12-20T09:23:13;2.00;;;1.67;;
74241;SDS011;62599;49.146;10.426;2023-12-20T09:25:38;1.80;;;1.07;;
74241;SDS011;62599;49.146;10.426;2023-12-20T09:28:03;3.67;;;1.73;;
74241;SDS011;62599;49.146;10.426;2023-12-20T09:30:28;3.53;;;2.50;;
74241;SDS011;62599;49.146;10.426;2023-12-20T09:32:54;1.58;;;1.05;;
74241;SDS011;62599;49.146;10.426;2023-12-20T09:35:20;3.15;;;1.08;;
74241;SDS011;62599;49.146;10.426;2023-12-20T09:37:45;2.10;;;1.17;;
74241;SDS011;62599;49.146;10.426;2023-12-20T09:40:12;2.78;;;1.55;;
74241;SDS011;62599;49.146;10.426;2023-12-20T09:42:41;4.68;;;1.73;;
74241;SDS011;62599;49.146;10.426;2023-12-20T09:45:08;1.67;;;0.85;;
74241;SDS011;62599;49.146;10.426;2023-12-20T09:47:34;3.05;;;1.75;;
74241;SDS011;62599;49.146;10.426;2023-12-20T09:49:59;3.80;;;1.30;;
74241;SDS011;62599;49.146;10.426;2023-12-20T09:52:25;4.50;;;1.50;;
74241;SDS011;62599;49.146;10.426;2023-12-20T09:54:50;5.97;;;2.97;;
74241;SDS011;62599;49.146;10.426;2023-12-20T09:57:17;1.67;;;1.00;;
74241;SDS011;62599;49.146;10.426;2023-12-20T09:59:43;4.43;;;1.33;;
74241;SDS011;62599;49.146;10.426;2023-12-20T10:02:09;3.40;;;1.33;;
74241;SDS011;62599;49.146;10.426;2023-12-20T10:04:37;2.83;;;2.30;;
74241;SDS011;62599;49.146;10.426;2023-12-20T10:07:07;3.83;;;1.25;;
74241;SDS011;62599;49.146;10.426;2023-12-20T10:09:33;1.90;;;1.63;;
74241;SDS011;62599;49.146;10.426;2023-12-20T10:11:59;7.50;;;2.22;;
74241;SDS011;62599;49.146;10.426;2023-12-20T10:14:24;2.63;;;1.73;;
74241;SDS011;62599;49.146;10.426;2023-12-20T10:16:50;3.80;;;1.80;;
74241;SDS011;62599;49.146;10.426;2023-12-20T10:19:19;2.03;;;1.67;;
74241;SDS011;62599;49.146;10.426;2023-12-20T10:21:44;1.23;;;1.08;;
74241;SDS011;62599;49.146;10.426;2023-12-20T10:24:10;2.53;;;2.03;;
74241;SDS011;62599;49.146;10.426;2023-12-20T10:26:42;2.50;;;1.92;;
74241;SDS011;62599;49.146;10.426;2023-12-20T10:29:07;3.22;;;2.30;;
74241;SDS011;62599;49.146;10.426;2023-12-20T10:31:33;4.43;;;2.17;;
74241;SDS011;62599;49.146;10.426;2023-12-20T10:33:59;2.55;;;1.45;;
74241;SDS011;62599;49.146;10.426;2023-12-20T10:36:27;2.05;;;1.08;;
74241;SDS011;62599;49.146;10.426;2023-12-20T10:38:52;1.55;;;0.98;;
74241;SDS011;62599;49.146;10.426;2023-12-20T10:41:18;0.95;;;0.70;;
74241;SDS011;62599;49.146;10.426;2023-12-20T10:43:47;3.03;;;1.58;;
74241;SDS011;62599;49.146;10.426;2023-12-20T10:46:12;3.60;;;1.47;;
74241;SDS011;62599;49.146;10.426;2023-12-20T10:48:38;1.70;;;1.17;;
74241;SDS011;62599;49.146;10.426;2023-12-20T10:51:04;0.77;;;0.68;;
74241;SDS011;62599;49.146;10.426;2023-12-20T10:53:30;3.50;;;2.03;;
74241;SDS011;62599;49.146;10.426;2023-12-20T10:55:55;2.58;;;1.58;;
74241;SDS011;62599;49.146;10.426;2023-12-20T10:58:24;1.40;;;1.25;;
74241;SDS011;62599;49.146;10.426;2023-12-20T11:00:49;3.03;;;1.27;;
74241;SDS011;62599;49.146;10.426;2023-12-20T11:03:17;1.75;;;1.02;;
74241;SDS011;62599;49.146;10.426;2023-12-20T11:05:50;1.80;;;1.00;;
74241;SDS011;62599;49.146;10.426;2023-12-20T11:08:30;1.73;;;1.40;;
74241;SDS011;62599;49.146;10.426;2023-12-20T11:11:06;2.20;;;1.58;;
74241;SDS011;62599;49.146;10.426;2023-12-20T11:13:40;1.45;;;1.13;;
74241;SDS011;62599;49.146;10.426;2023-12-20T11:16:09;2.65;;;0.70;;
74241;SDS011;62599;49.146;10.426;2023-12-20T11:18:34;1.60;;;1.50;;
74241;SDS011;62599;49.146;10.426;2023-12-20T11:21:00;2.33;;;0.60;;
74241;SDS011;62599;49.146;10.426;2023-12-20T11:23:26;1.08;;;0.82;;
74241;SDS011;62599;49.146;10.426;2023-12-20T11:25:52;0.67;;;0.50;;
74241;SDS011;62599;49.146;10.426;2023-12-20T11:28:21;1.13;;;0.68;;
74241;SDS011;62599;49.146;10.426;2023-12-20T11:30:47;2.25;;;1.08;;
74241;SDS011;62599;49.146;10.426;2023-12-20T11:33:13;1.13;;;0.68;;
74241;SDS011;62599;49.146;10.426;2023-12-20T11:35:39;0.52;;;0.52;;
74241;SDS011;62599;49.146;10.426;2023-12-20T11:38:07;1.50;;;0.50;;
74241;SDS011;62599;49.146;10.426;2023-12-20T11:40:32;0.98;;;0.75;;
74241;SDS011;62599;49.146;10.426;2023-12-20T11:42:58;0.88;;;0.50;;
74241;SDS011;62599;49.146;10.426;2023-12-20T11:45:24;1.03;;;0.73;;
74241;SDS011;62599;49.146;10.426;2023-12-20T11:47:50;3.17;;;0.77;;
74241;SDS011;62599;49.146;10.426;2023-12-20T11:50:16;0.95;;;0.88;;
74241;SDS011;62599;49.146;10.426;2023-12-20T11:52:41;1.63;;;0.90;;
74241;SDS011;62599;49.146;10.426;2023-12-20T11:55:06;0.60;;;0.60;;
74241;SDS011;62599;49.146;10.426;2023-12-20T11:57:32;0.23;;;0.20;;
74241;SDS011;62599;49.146;10.426;2023-12-20T11:59:57;3.30;;;0.98;;
74241;SDS011;62599;49.146;10.426;2023-12-20T12:02:22;0.67;;;0.60;;
74241;SDS011;62599;49.146;10.426;2023-12-20T12:04:49;0.50;;;0.43;;
74241;SDS011;62599;49.146;10.426;2023-12-20T12:07:15;2.40;;;0.70;;
74241;SDS011;62599;49.146;10.426;2023-12-20T12:09:40;0.77;;;0.77;;
74241;SDS011;62599;49.146;10.426;2023-12-20T12:12:06;0.73;;;0.50;;
74241;SDS011;62599;49.146;10.426;2023-12-20T12:14:31;0.95;;;0.77;;
74241;SDS011;62599;49.146;10.426;2023-12-20T12:16:57;1.20;;;0.77;;
74241;SDS011;62599;49.146;10.426;2023-12-20T12:19:23;2.00;;;0.60;;
74241;SDS011;62599;49.146;10.426;2023-12-20T12:22:10;2.42;;;0.75;;
74241;SDS011;62599;49.146;10.426;2023-12-20T12:24:38;0.65;;;0.35;;
74241;SDS011;62599;49.146;10.426;2023-12-20T12:27:05;2.47;;;0.63;;
74241;SDS011;62599;49.146;10.426;2023-12-20T12:29:30;6.32;;;1.75;;
74241;SDS011;62599;49.146;10.426;2023-12-20T12:31:55;3.17;;;1.13;;
74241;SDS011;62599;49.146;10.426;2023-12-20T12:34:21;2.00;;;0.63;;
74241;SDS011;62599;49.146;10.426;2023-12-20T12:36:46;0.40;;;0.30;;
74241;SDS011;62599;49.146;10.426;2023-12-20T12:39:13;0.75;;;0.40;;
74241;SDS011;62599;49.146;10.426;2023-12-20T12:41:40;2.50;;;0.70;;
74241;SDS011;62599;49.146;10.426;2023-12-20T12:44:05;0.83;;;0.70;;
74241;SDS011;62599;49.146;10.426;2023-12-20T12:46:31;1.13;;;0.37;;
74241;SDS011;62599;49.146;10.426;2023-12-20T12:48:57;0.65;;;0.43;;
74241;SDS011;62599;49.146;10.426;2023-12-20T12:51:23;3.00;;;0.73;;
74241;SDS011;62599;49.146;10.426;2023-12-20T12:53:48;0.97;;;0.50;;
74241;SDS011;62599;49.146;10.426;2023-12-20T12:56:13;0.57;;;0.57;;
74241;SDS011;62599;49.146;10.426;2023-12-20T13:01:44;4.30;;;0.65;;
74241;SDS011;62599;49.146;10.426;2023-12-20T13:04:09;2.57;;;0.40;;
74241;SDS011;62599;49.146;10.426;2023-12-20T13:06:35;0.70;;;0.63;;
74241;SDS011;62599;49.146;10.426;2023-12-20T13:09:01;0.25;;;0.13;;
74241;SDS011;62599;49.146;10.426;2023-12-20T13:11:26;2.63;;;1.23;;
74241;SDS011;62599;49.146;10.426;2023-12-20T13:13:51;1.90;;;0.60;;
74241;SDS011;62599;49.146;10.426;2023-12-20T13:16:16;1.90;;;1.07;;
74241;SDS011;62599;49.146;10.426;2023-12-20T13:18:42;5.33;;;0.40;;
74241;SDS011;62599;49.146;10.426;2023-12-20T13:21:07;0.43;;;0.43;;
74241;SDS011;62599;49.146;10.426;2023-12-20T13:23:33;1.20;;;0.45;;
74241;SDS011;62599;49.146;10.426;2023-12-20T13:25:58;2.63;;;1.00;;
74241;SDS011;62599;49.146;10.426;2023-12-20T13:28:23;2.77;;;0.70;;
74241;SDS011;62599;49.146;10.426;2023-12-20T13:30:48;0.97;;;0.50;;
74241;SDS011;62599;49.146;10.426;2023-12-20T13:33:14;1.00;;;0.40;;
74241;SDS011;62599;49.146;10.426;2023-12-20T13:35:47;3.00;;;0.77;;
74241;SDS011;62599;49.146;10.426;2023-12-20T13:38:19;1.70;;;0.32;;
74241;SDS011;62599;49.146;10.426;2023-12-20T13:40:44;1.90;;;0.70;;
74241;SDS011;62599;49.146;10.426;2023-12-20T13:43:09;3.10;;;0.40;;
74241;SDS011;62599;49.146;10.426;2023-12-20T13:45:36;1.15;;;0.80;;
74241;SDS011;62599;49.146;10.426;2023-12-20T13:48:02;1.33;;;0.60;;
74241;SDS011;62599;49.146;10.426;2023-12-20T13:50:27;1.25;;;0.40;;
74241;SDS011;62599;49.146;10.426;2023-12-20T13:52:52;1.67;;;0.80;;
74241;SDS011;62599;49.146;10.426;2023-12-20T13:55:18;0.47;;;0.40;;
74241;SDS011;62599;49.146;10.426;2023-12-20T13:57:50;3.05;;;0.45;;
74241;SDS011;62599;49.146;10.426;2023-12-20T14:00:15;0.82;;;0.60;;
74241;SDS011;62599;49.146;10.426;2023-12-20T14:02:41;6.47;;;0.43;;
74241;SDS011;62599;49.146;10.426;2023-12-20T14:05:06;1.58;;;0.90;;
74241;SDS011;62599;49.146;10.426;2023-12-20T14:07:31;0.67;;;0.67;;
74241;SDS011;62599;49.146;10.426;2023-12-20T14:09:57;0.97;;;0.60;;
74241;SDS011;62599;49.146;10.426;2023-12-20T14:12:24;2.00;;;0.88;;
74241;SDS011;62599;49.146;10.426;2023-12-20T14:14:49;1.40;;;0.60;;
74241;SDS011;62599;49.146;10.426;2023-12-20T14:17:14;2.17;;;0.77;;
74241;SDS011;62599;49.146;10.426;2023-12-20T14:19:40;0.50;;;0.43;;
74241;SDS011;62599;49.146;10.426;2023-12-20T14:22:05;0.90;;;0.43;;
74241;SDS011;62599;49.146;10.426;2023-12-20T14:24:31;1.15;;;0.73;;
74241;SDS011;62599;49.146;10.426;2023-12-20T14:26:57;2.22;;;0.57;;